createdAt,value
2023-05-13T00:02:38.096Z,91.90
2023-05-13T00:05:41.027Z,91.83
2023-05-13T00:08:43.736Z,91.46
2023-05-13T00:11:47.974Z,91.63
2023-05-13T00:14:50.696Z,91.12
2023-05-13T00:17:53.518Z,91.20
2023-05-13T00:20:57.012Z,91.10
2023-05-13T00:23:59.679Z,91.13
2023-05-13T00:27:03.681Z,91.32
2023-05-13T00:30:08.240Z,91.56
2023-05-13T00:33:11.007Z,91.65
2023-05-13T00:36:14.413Z,91.64
2023-05-13T00:39:17.061Z,91.47
2023-05-13T00:42:21.091Z,91.77
2023-05-13T00:45:23.738Z,91.59
2023-05-13T00:48:26.824Z,91.88
2023-05-13T00:51:29.645Z,91.88
2023-05-13T00:54:32.430Z,92.20
2023-05-13T00:57:36.879Z,92.30
2023-05-13T01:00:53.436Z,92.23
2023-05-13T01:04:05.042Z,92.66
2023-05-13T01:07:14.656Z,92.55
2023-05-13T01:10:24.915Z,92.75
2023-05-13T01:13:32.940Z,92.63
2023-05-13T01:16:47.328Z,92.74
2023-05-13T01:19:55.508Z,92.81
2023-05-13T01:22:59.621Z,92.96
2023-05-13T01:26:02.428Z,92.53
2023-05-13T01:29:05.123Z,92.76
2023-05-13T01:32:09.657Z,92.65
2023-05-13T01:35:13.337Z,92.72
2023-05-13T01:38:17.984Z,92.56
2023-05-13T01:41:20.841Z,92.42
2023-05-13T01:44:23.498Z,91.99
2023-05-13T01:47:26.285Z,91.82
2023-05-13T01:50:29.013Z,91.54
2023-05-13T01:53:33.093Z,91.07
2023-05-13T01:56:36.300Z,90.82
2023-05-13T01:59:39.122Z,91.29
2023-05-13T02:02:41.951Z,91.38
2023-05-13T02:05:44.820Z,91.10
2023-05-13T02:08:48.866Z,91.47
2023-05-13T02:11:51.994Z,91.26
2023-05-13T02:14:56.906Z,91.12
2023-05-13T02:17:59.685Z,91.32
2023-05-13T02:21:02.373Z,91.41
2023-05-13T02:24:07.416Z,91.58
2023-05-13T02:27:12.599Z,91.31
2023-05-13T02:30:15.491Z,91.88
2023-05-13T02:33:18.150Z,92.05
2023-05-13T02:36:20.864Z,92.03
2023-05-13T02:39:24.884Z,92.57
2023-05-13T02:42:27.594Z,92.55
2023-05-13T02:45:30.259Z,92.71
2023-05-13T02:48:32.906Z,92.76
2023-05-13T02:51:37.743Z,92.67
2023-05-13T02:54:41.790Z,93.00
2023-05-13T02:57:44.710Z,93.22
2023-05-13T03:00:47.345Z,93.17
2023-05-13T03:03:50.493Z,93.64
2023-05-13T03:06:53.427Z,93.68
2023-05-13T03:09:57.789Z,93.59
2023-05-13T03:13:00.441Z,93.21
2023-05-13T03:16:03.685Z,93.29
2023-05-13T03:19:06.401Z,93.20
2023-05-13T03:22:09.078Z,92.78
2023-05-13T03:25:15.600Z,93.17
2023-05-13T03:28:18.298Z,92.85
2023-05-13T03:31:21.017Z,92.57
2023-05-13T03:34:23.727Z,92.84
2023-05-13T03:37:26.509Z,91.90
2023-05-13T03:40:30.622Z,92.07
2023-05-13T03:43:33.920Z,91.57
2023-05-13T03:46:36.703Z,91.32
2023-05-13T03:49:39.416Z,91.25
2023-05-13T03:52:42.495Z,91.07
2023-05-13T03:55:48.151Z,90.82
2023-05-13T03:58:50.798Z,90.86
2023-05-13T04:01:53.468Z,90.95
2023-05-13T04:04:56.463Z,91.22
2023-05-13T04:07:59.194Z,91.04
2023-05-13T04:11:06.270Z,91.24
2023-05-13T04:14:08.912Z,91.26
2023-05-13T04:17:11.677Z,91.25
2023-05-13T04:20:14.514Z,90.92
2023-05-13T04:23:17.315Z,90.48
2023-05-13T04:26:27.470Z,90.91
2023-05-13T04:29:30.181Z,90.40
2023-05-13T04:32:33.108Z,90.53
2023-05-13T04:35:35.825Z,90.69
2023-05-13T04:38:38.541Z,90.04
2023-05-13T04:41:42.785Z,89.97
2023-05-13T04:44:45.717Z,89.55
2023-05-13T04:47:48.433Z,89.40
2023-05-13T04:50:52.399Z,88.86
2023-05-13T04:53:55.513Z,89.16
2023-05-13T04:56:59.542Z,89.03
2023-05-13T05:00:02.547Z,89.27
2023-05-13T05:03:05.733Z,88.77
2023-05-13T05:06:08.634Z,88.53
2023-05-13T05:09:11.436Z,88.57
2023-05-13T05:12:15.656Z,88.05
2023-05-13T05:15:18.344Z,88.11
2023-05-13T05:18:21.063Z,88.38
2023-05-13T05:21:24.291Z,88.60
2023-05-13T05:24:27.049Z,88.29
2023-05-13T05:27:31.116Z,88.47
2023-05-13T05:30:39.414Z,87.45
2023-05-13T05:33:42.687Z,87.69
2023-05-13T05:36:45.380Z,87.46
2023-05-13T05:39:48.383Z,87.10
2023-05-13T05:42:52.474Z,86.85
2023-05-13T05:45:55.287Z,86.51
2023-05-13T05:48:58.085Z,85.67
2023-05-13T05:52:00.729Z,85.23
2023-05-13T05:55:04.126Z,84.46
2023-05-13T05:58:10.930Z,83.94
2023-05-13T06:01:13.967Z,83.10
2023-05-13T06:04:17.508Z,82.89
2023-05-13T06:07:20.277Z,82.09
2023-05-13T06:10:23.227Z,80.33
2023-05-13T06:13:27.480Z,81.21
2023-05-13T06:16:30.334Z,81.35
2023-05-13T06:19:37.546Z,81.71
2023-05-13T06:22:40.930Z,79.61
2023-05-13T06:25:43.631Z,77.00
2023-05-13T06:28:50.685Z,74.26
2023-05-13T06:31:53.515Z,71.60
2023-05-13T06:34:56.192Z,68.75
2023-05-13T06:37:58.837Z,67.91
2023-05-13T06:41:01.508Z,66.57
2023-05-13T06:44:07.413Z,65.73
2023-05-13T06:47:14.638Z,64.34
2023-05-13T06:50:17.766Z,63.70
2023-05-13T06:53:20.440Z,62.35
2023-05-13T06:56:23.937Z,63.24
2023-05-13T06:59:28.134Z,62.41
2023-05-13T07:02:31.014Z,62.10
2023-05-13T07:05:34.037Z,63.49
2023-05-13T07:08:36.814Z,63.96
2023-05-13T07:11:39.994Z,65.05
2023-05-13T07:14:45.253Z,64.46
2023-05-13T07:17:48.128Z,65.06
2023-05-13T07:20:53.264Z,64.90
2023-05-13T07:23:55.950Z,64.11
2023-05-13T07:26:58.676Z,61.95
2023-05-13T07:30:02.796Z,60.31
2023-05-13T07:33:05.905Z,58.41
2023-05-13T07:36:08.792Z,57.12
2023-05-13T07:39:12.049Z,54.46
2023-05-13T07:42:15.321Z,53.35
2023-05-13T07:45:19.484Z,52.03
2023-05-13T07:48:24.520Z,50.93
2023-05-13T07:51:27.294Z,50.99
2023-05-13T07:54:29.995Z,50.45
2023-05-13T07:57:32.906Z,50.12
2023-05-13T08:00:37.821Z,50.32
2023-05-13T08:03:41.272Z,50.48
2023-05-13T08:06:44.086Z,51.58
2023-05-13T08:09:46.872Z,53.03
2023-05-13T08:12:53.550Z,53.58
2023-05-13T08:15:57.683Z,55.41
2023-05-13T08:19:01.604Z,55.87
2023-05-13T08:22:06.833Z,56.06
2023-05-13T08:25:11.216Z,55.70
2023-05-13T08:28:14.071Z,56.14
2023-05-13T08:31:18.197Z,56.24
2023-05-13T08:34:21.049Z,56.40
2023-05-13T08:37:23.960Z,55.90
2023-05-13T08:40:26.787Z,55.67
2023-05-13T08:43:31.137Z,54.49
2023-05-13T08:46:38.123Z,53.46
2023-05-13T08:49:41.282Z,54.22
2023-05-13T08:52:44.934Z,53.88
2023-05-13T08:55:49.619Z,52.47
2023-05-13T08:58:52.363Z,53.00
2023-05-13T09:01:56.861Z,53.46
2023-05-13T09:05:03.843Z,52.22
2023-05-13T09:08:10.126Z,52.05
2023-05-13T09:11:13.066Z,52.21
2023-05-13T09:14:20.141Z,51.85
2023-05-13T09:17:24.226Z,50.60
2023-05-13T09:20:27.136Z,50.60
2023-05-13T09:23:30.353Z,49.17
2023-05-13T09:26:34.111Z,49.71
2023-05-13T09:29:37.736Z,49.38
2023-05-13T09:32:43.225Z,48.94
2023-05-13T09:35:53.823Z,47.90
2023-05-13T09:38:56.623Z,47.50
2023-05-13T09:41:59.451Z,46.40
2023-05-13T09:45:07.284Z,47.72
2023-05-13T09:48:11.501Z,47.22
2023-05-13T09:51:16.410Z,45.09
2023-05-13T09:54:19.268Z,45.66
2023-05-13T09:57:22.138Z,45.47
2023-05-13T10:00:32.175Z,45.94
2023-05-13T10:03:37.356Z,46.09
2023-05-13T10:06:40.434Z,45.10
2023-05-13T10:09:44.665Z,44.96
2023-05-13T10:12:48.600Z,44.88
2023-05-13T10:15:52.955Z,43.93
2023-05-13T10:18:58.044Z,42.58
2023-05-13T10:22:01.537Z,41.94
2023-05-13T10:25:05.114Z,42.23
2023-05-13T10:28:07.818Z,42.51
2023-05-13T10:31:10.505Z,43.00
2023-05-13T10:34:14.634Z,42.15
2023-05-13T10:37:46.786Z,41.42
2023-05-13T10:41:13.076Z,41.68
2023-05-13T10:44:15.966Z,41.90
2023-05-13T10:47:18.676Z,41.83
2023-05-13T10:50:27.099Z,41.80
2023-05-13T10:53:32.132Z,42.24
2023-05-13T10:56:34.889Z,42.72
2023-05-13T10:59:38.843Z,42.37
2023-05-13T11:02:41.757Z,42.08
2023-05-13T11:05:48.148Z,41.16
2023-05-13T11:08:55.753Z,41.32
2023-05-13T11:12:00.424Z,41.91
2023-05-13T11:15:03.186Z,41.24
2023-05-13T11:18:07.256Z,40.59
2023-05-13T11:21:11.576Z,40.56
2023-05-13T11:24:19.488Z,40.22
2023-05-13T11:27:22.398Z,40.87
2023-05-13T11:30:27.230Z,39.81
2023-05-13T11:34:10.557Z,39.80
2023-05-13T11:37:15.210Z,39.77
2023-05-13T11:40:23.540Z,39.01
2023-05-13T11:43:27.568Z,38.76
2023-05-13T11:46:30.459Z,38.33
2023-05-13T11:49:34.733Z,38.50
2023-05-13T11:52:39.243Z,37.16
2023-05-13T11:55:41.910Z,38.04
2023-05-13T11:58:44.724Z,38.05
2023-05-13T12:01:47.611Z,37.44
2023-05-13T12:04:51.688Z,38.19
2023-05-13T12:07:59.027Z,37.93
2023-05-13T12:11:01.979Z,38.36
2023-05-13T12:14:05.177Z,38.13
2023-05-13T12:17:07.987Z,37.44
2023-05-13T12:20:12.973Z,37.73
2023-05-13T12:23:17.116Z,37.35
2023-05-13T12:26:20.275Z,35.89
2023-05-13T12:29:22.937Z,35.29
2023-05-13T12:32:25.900Z,35.46
2023-05-13T12:35:28.753Z,36.41
2023-05-13T12:38:33.517Z,36.21
2023-05-13T12:41:37.270Z,36.62
2023-05-13T12:44:40.178Z,34.87
2023-05-13T12:47:49.856Z,35.13
2023-05-13T12:50:52.859Z,35.76
2023-05-13T12:53:58.329Z,35.47
2023-05-13T12:57:01.048Z,35.11
2023-05-13T13:00:04.841Z,36.37
2023-05-13T13:03:08.004Z,36.39
2023-05-13T13:06:11.878Z,35.29
2023-05-13T13:09:16.603Z,35.24
2023-05-13T13:12:19.354Z,35.84
2023-05-13T13:15:22.502Z,36.24
2023-05-13T13:18:25.750Z,35.32
2023-05-13T13:21:28.782Z,35.83
2023-05-13T13:24:32.838Z,35.92
2023-05-13T13:27:35.829Z,35.94
2023-05-13T13:30:39.342Z,35.81
2023-05-13T13:33:42.022Z,35.90
2023-05-13T13:36:45.172Z,35.58
2023-05-13T13:39:49.389Z,35.57
2023-05-13T13:42:52.143Z,35.99
2023-05-13T13:45:54.881Z,35.84
2023-05-13T13:48:57.592Z,35.81
2023-05-13T13:52:00.531Z,35.64
2023-05-13T13:55:05.243Z,35.84
2023-05-13T13:58:08.052Z,36.15
2023-05-13T14:01:10.889Z,36.67
2023-05-13T14:04:16.583Z,37.55
2023-05-13T14:07:19.262Z,38.24
2023-05-13T14:10:23.678Z,38.33
2023-05-13T14:13:26.542Z,39.03
2023-05-13T14:16:29.389Z,39.27
2023-05-13T14:19:32.324Z,40.05
2023-05-13T14:22:35.016Z,40.52
2023-05-13T14:25:39.246Z,46.31
2023-05-13T14:28:42.146Z,54.32
2023-05-13T14:31:44.851Z,59.65
2023-05-13T14:34:47.539Z,63.88
2023-05-13T14:37:50.275Z,64.24
2023-05-13T14:40:55.666Z,68.56
2023-05-13T14:43:58.355Z,70.55
2023-05-13T14:47:01.219Z,69.73
2023-05-13T14:50:04.409Z,68.21
2023-05-13T14:53:07.229Z,69.04
2023-05-13T14:56:11.381Z,68.08
2023-05-13T14:59:14.141Z,68.89
2023-05-13T15:02:17.429Z,65.61
2023-05-13T15:05:20.339Z,64.98
2023-05-13T15:08:23.322Z,65.77
2023-05-13T15:11:28.856Z,61.34
2023-05-13T15:14:31.558Z,57.91
2023-05-13T15:17:34.488Z,56.95
2023-05-13T15:20:37.212Z,56.38
2023-05-13T15:23:39.947Z,56.10
2023-05-13T15:26:44.127Z,52.68
2023-05-13T15:29:46.891Z,52.47
2023-05-13T15:32:49.737Z,51.46
2023-05-13T15:35:52.727Z,49.81
2023-05-13T15:38:55.479Z,49.42
2023-05-13T15:41:59.604Z,50.00
2023-05-13T15:45:02.642Z,51.29
2023-05-13T15:48:06.070Z,50.20
2023-05-13T15:51:09.073Z,50.92
2023-05-13T15:54:11.919Z,51.64
2023-05-13T15:57:18.147Z,51.53
2023-05-13T16:00:21.453Z,50.68
2023-05-13T16:03:24.485Z,50.66
2023-05-13T16:06:27.224Z,50.30
2023-05-13T16:09:29.872Z,49.80
2023-05-13T16:12:34.201Z,49.52
2023-05-13T16:15:37.036Z,49.89
2023-05-13T16:18:40.482Z,49.10
2023-05-13T16:21:43.232Z,49.58
2023-05-13T16:24:45.906Z,50.31
2023-05-13T16:27:49.917Z,49.53
2023-05-13T16:30:56.231Z,50.46
2023-05-13T16:34:04.084Z,49.48
2023-05-13T16:37:06.758Z,50.19
2023-05-13T16:40:11.554Z,50.54
2023-05-13T16:43:15.691Z,51.50
2023-05-13T16:46:18.333Z,51.66
2023-05-13T16:49:22.998Z,51.83
2023-05-13T16:52:26.333Z,52.31
2023-05-13T16:55:29.173Z,52.67
2023-05-13T16:58:33.160Z,53.11
2023-05-13T17:01:35.961Z,52.71
2023-05-13T17:04:38.697Z,51.76
2023-05-13T17:07:41.571Z,52.39
2023-05-13T17:10:44.341Z,53.26
2023-05-13T17:13:48.374Z,53.21
2023-05-13T17:16:52.268Z,53.79
2023-05-13T17:19:55.795Z,54.40
2023-05-13T17:23:04.509Z,55.11
2023-05-13T17:26:07.945Z,55.88
2023-05-13T17:29:13.694Z,55.94
2023-05-13T17:32:16.914Z,56.44
2023-05-13T17:35:20.306Z,56.42
2023-05-13T17:38:23.845Z,56.63
2023-05-13T17:41:27.573Z,56.81
2023-05-13T17:44:32.373Z,57.02
2023-05-13T17:47:35.569Z,57.05
2023-05-13T17:50:38.629Z,56.84
2023-05-13T17:53:41.300Z,56.69
2023-05-13T17:56:44.058Z,56.48
2023-05-13T17:59:48.123Z,57.78
2023-05-13T18:02:50.992Z,59.33
2023-05-13T18:05:53.943Z,60.34
2023-05-13T18:08:56.667Z,60.08
2023-05-13T18:11:59.334Z,59.93
2023-05-13T18:15:03.524Z,60.44
2023-05-13T18:18:06.600Z,60.47
2023-05-13T18:21:10.601Z,61.45
2023-05-13T18:24:13.369Z,62.87
2023-05-13T18:27:16.181Z,63.87
2023-05-13T18:30:20.787Z,64.26
2023-05-13T18:33:23.665Z,65.54
2023-05-13T18:36:26.556Z,66.35
2023-05-13T18:39:29.382Z,67.36
2023-05-13T18:42:32.612Z,67.89
2023-05-13T18:45:36.727Z,68.55
2023-05-13T18:48:39.558Z,68.48
2023-05-13T18:51:42.407Z,68.86
2023-05-13T18:54:45.074Z,69.14
2023-05-13T18:57:47.808Z,69.92
2023-05-13T19:00:52.508Z,70.37
2023-05-13T19:03:55.666Z,70.74
2023-05-13T19:06:58.466Z,71.48
2023-05-13T19:10:01.924Z,72.55
2023-05-13T19:13:06.714Z,73.31
2023-05-13T19:16:10.810Z,73.75
2023-05-13T19:19:13.553Z,74.75
2023-05-13T19:22:16.269Z,75.58
2023-05-13T19:25:19.177Z,76.39
2023-05-13T19:28:21.865Z,76.15
2023-05-13T19:31:26.988Z,76.11
2023-05-13T19:34:29.659Z,76.29
2023-05-13T19:37:32.306Z,76.65
2023-05-13T19:40:35.013Z,76.92
2023-05-13T19:43:37.733Z,77.33
2023-05-13T19:46:41.896Z,77.25
2023-05-13T19:49:44.599Z,77.50
2023-05-13T19:52:47.290Z,78.30
2023-05-13T19:55:50.044Z,78.46
2023-05-13T19:58:53.266Z,78.23
2023-05-13T20:01:57.702Z,78.31
2023-05-13T20:05:00.501Z,78.86
2023-05-13T20:08:03.324Z,79.06
2023-05-13T20:11:06.625Z,79.02
2023-05-13T20:14:12.365Z,79.40
2023-05-13T20:17:19.019Z,79.96
2023-05-13T20:20:22.224Z,80.55
2023-05-13T20:23:25.095Z,80.34
2023-05-13T20:26:27.881Z,80.13
2023-05-13T20:29:34.891Z,80.22
2023-05-13T20:32:39.035Z,79.93
2023-05-13T20:35:42.661Z,79.81
2023-05-13T20:38:45.325Z,79.98
2023-05-13T20:41:47.993Z,79.97
2023-05-13T20:44:50.750Z,79.92
2023-05-13T20:47:59.132Z,80.07
2023-05-13T20:51:04.706Z,80.11
2023-05-13T20:54:10.976Z,79.79
2023-05-13T20:57:13.634Z,79.62
2023-05-13T21:00:16.803Z,79.87
2023-05-13T21:03:21.160Z,79.80
2023-05-13T21:06:24.255Z,79.79
2023-05-13T21:09:26.988Z,79.83
2023-05-13T21:12:29.983Z,79.52
2023-05-13T21:15:32.760Z,79.79
2023-05-13T21:18:37.050Z,80.00
2023-05-13T21:21:39.837Z,80.19
2023-05-13T21:24:42.710Z,80.13
2023-05-13T21:27:45.948Z,79.81
2023-05-13T21:30:48.671Z,79.92
2023-05-13T21:33:52.712Z,79.81
2023-05-13T21:36:55.419Z,79.67
2023-05-13T21:39:58.208Z,81.08
2023-05-13T21:43:00.926Z,82.69
2023-05-13T21:46:03.689Z,83.32
2023-05-13T21:49:07.739Z,83.79
2023-05-13T21:52:10.655Z,84.81
2023-05-13T21:55:13.431Z,84.87
2023-05-13T21:58:18.393Z,84.92
2023-05-13T22:01:24.327Z,84.88
2023-05-13T22:04:28.591Z,85.24
2023-05-13T22:07:31.326Z,85.00
2023-05-13T22:10:34.010Z,84.98
2023-05-13T22:13:36.682Z,84.79
2023-05-13T22:16:41.602Z,84.74
2023-05-13T22:19:45.869Z,84.65
2023-05-13T22:22:48.748Z,84.61
2023-05-13T22:25:51.552Z,84.56
2023-05-13T22:28:54.371Z,84.57
2023-05-13T22:31:57.789Z,84.73
2023-05-13T22:35:01.973Z,84.78
2023-05-13T22:38:04.998Z,85.15
2023-05-13T22:41:07.688Z,86.03
2023-05-13T22:44:10.504Z,87.25
2023-05-13T22:47:13.137Z,88.13
2023-05-13T22:50:17.139Z,89.12
2023-05-13T22:53:19.828Z,89.89
2023-05-13T22:56:22.705Z,90.50
2023-05-13T22:59:26.725Z,91.07
2023-05-13T23:02:29.544Z,91.08
2023-05-13T23:05:33.749Z,90.61
2023-05-13T23:08:36.435Z,90.35
2023-05-13T23:11:39.343Z,90.84
2023-05-13T23:14:41.986Z,90.51
2023-05-13T23:17:44.761Z,90.35
2023-05-13T23:20:51.947Z,90.32
2023-05-13T23:23:54.670Z,90.57
2023-05-13T23:26:57.413Z,90.74
2023-05-13T23:30:00.275Z,90.21
2023-05-13T23:33:03.402Z,90.74
2023-05-13T23:36:08.080Z,90.42
2023-05-13T23:39:10.816Z,90.74
2023-05-13T23:42:13.523Z,90.56
2023-05-13T23:45:16.456Z,90.58
2023-05-13T23:48:19.173Z,90.41
2023-05-13T23:51:23.200Z,90.85
2023-05-13T23:54:25.917Z,90.51
2023-05-13T23:57:28.755Z,90.87
